Time;durP1;ratioP1;P1;durP2;ratioP2;P2;SDS_P1;SDS_P2;PMS_P1;PMS_P2;Temp;Humidity;BMP_temperature;BMP_pressure;BME280_temperature;BME280_humidity;BME280_pressure;Samples;Min_cycle;Max_cycle;Signal;HPM_P1;HPM_P2
2021/09/12 00:01:32;;;;;;;5.93;3.72;;;;;;;25.05;45.92;101412.13;5065399;28;20078;-71
2021/09/12 00:03:59;;;;;;;6.43;3.85;;;;;;;25.04;45.95;101415.09;5062387;28;20748;-71
2021/09/12 00:06:27;;;;;;;5.20;3.55;;;;;;;25.04;45.85;101415.94;5054597;28;20052;-71
2021/09/12 00:08:54;;;;;;;6.07;3.58;;;;;;;25.02;46.21;101418.94;5064762;28;20072;-71
2021/09/12 00:11:20;;;;;;;5.10;3.90;;;;;;;25.02;46.20;101416.16;5066454;28;20135;-71
2021/09/12 00:13:48;;;;;;;5.20;3.45;;;;;;;25.02;45.92;101412.50;5046443;28;20076;-71
2021/09/12 00:16:15;;;;;;;6.18;3.58;;;;;;;25.01;46.45;101413.56;5056702;28;20123;-71
2021/09/12 00:18:41;;;;;;;5.25;3.50;;;;;;;25.01;46.29;101413.56;5066310;28;20060;-71
2021/09/12 00:21:08;;;;;;;6.10;3.80;;;;;;;24.99;45.92;101410.94;5042681;28;20135;-71
2021/09/12 00:23:34;;;;;;;4.90;3.58;;;;;;;25.00;46.16;101415.47;5061545;28;20604;-71
2021/09/12 00:26:01;;;;;;;5.60;3.47;;;;;;;25.00;46.52;101409.03;5061114;28;20532;-71
2021/09/12 00:28:27;;;;;;;4.82;3.33;;;;;;;24.97;46.29;101410.25;5066398;28;20155;-71
2021/09/12 00:30:54;;;;;;;5.97;3.90;;;;;;;24.97;46.49;101401.06;5058415;28;20087;-71
2021/09/12 00:33:21;;;;;;;6.40;3.75;;;;;;;24.97;46.55;101406.63;5061759;28;20076;-71
2021/09/12 00:35:47;;;;;;;4.85;3.35;;;;;;;24.96;46.61;101407.66;5053455;28;20059;-71
2021/09/12 00:38:14;;;;;;;5.20;3.40;;;;;;;24.95;46.66;101398.47;5063596;28;20131;-71
2021/09/12 00:40:40;;;;;;;6.13;3.90;;;;;;;24.94;46.50;101399.53;5064781;28;20040;-71
2021/09/12 00:43:07;;;;;;;6.22;3.85;;;;;;;24.94;46.95;101399.53;5056764;28;20127;-71
2021/09/12 00:45:33;;;;;;;6.28;3.95;;;;;;;24.94;46.80;101398.66;5063335;28;20092;-71
2021/09/12 00:48:00;;;;;;;5.65;3.60;;;;;;;24.93;46.74;101403.34;5059042;28;20127;-71
2021/09/12 00:50:26;;;;;;;5.55;3.80;;;;;;;24.93;46.61;101399.72;5056287;28;20045;-71
2021/09/12 00:53:00;;;;;;;6.05;3.95;;;;;;;24.97;47.01;101404.72;5056300;28;20045;-71
2021/09/12 00:55:28;;;;;;;6.97;4.00;;;;;;;24.93;47.40;101396.94;5066165;28;20076;-71
2021/09/12 00:57:56;;;;;;;6.88;4.40;;;;;;;24.94;46.72;101401.44;5061998;28;20127;-71
2021/09/12 01:00:22;;;;;;;6.70;3.85;;;;;;;24.93;46.91;101400.59;5074720;28;20620;-71
2021/09/12 01:02:49;;;;;;;5.88;4.30;;;;;;;24.92;46.61;101396.06;5063930;28;20068;-71
2021/09/12 01:05:17;;;;;;;5.60;4.05;;;;;;;24.92;47.41;101392.41;5061479;28;20059;-71
2021/09/12 01:07:45;;;;;;;7.10;4.35;;;;;;;24.93;47.24;101396.94;5059568;28;20177;-71
2021/09/12 01:10:13;;;;;;;6.82;4.00;;;;;;;24.93;46.90;101392.25;5052350;28;20167;-71
2021/09/12 01:12:40;;;;;;;6.20;4.50;;;;;;;24.91;46.97;101393.47;5061551;28;20136;-72
2021/09/12 01:15:08;;;;;;;5.60;3.92;;;;;;;24.92;46.72;101396.06;5062687;28;20079;-71
2021/09/12 01:17:34;;;;;;;6.03;4.15;;;;;;;24.92;46.76;101386.88;5071886;28;20079;-71
2021/09/12 01:20:01;;;;;;;7.20;4.35;;;;;;;24.91;46.98;101390.69;5067919;28;20131;-71
2021/09/12 01:22:29;;;;;;;6.22;4.22;;;;;;;24.91;47.13;101382.34;5064096;28;20520;-71
2021/09/12 01:24:56;;;;;;;5.72;4.15;;;;;;;24.90;46.79;101381.44;5058694;28;20725;-71
2021/09/12 01:27:22;;;;;;;6.07;4.05;;;;;;;24.89;46.53;101376.94;5060236;28;20626;-71
2021/09/12 01:29:49;;;;;;;6.38;4.20;;;;;;;24.90;46.91;101380.59;5076399;28;20109;-71
2021/09/12 01:32:15;;;;;;;6.15;4.05;;;;;;;24.89;46.94;101378.84;5066928;28;20144;-71
2021/09/12 01:34:42;;;;;;;6.43;4.03;;;;;;;24.89;46.34;101376.94;5061352;28;20135;-71
2021/09/12 01:37:08;;;;;;;7.25;4.35;;;;;;;24.88;46.90;101380.75;5062543;28;20174;-72
2021/09/12 01:39:35;;;;;;;7.05;4.20;;;;;;;24.88;46.71;101379.91;5063148;28;20765;-71
2021/09/12 01:42:02;;;;;;;7.47;4.82;;;;;;;24.87;47.02;101373.47;5064251;28;20532;-71
2021/09/12 01:44:28;;;;;;;6.68;4.47;;;;;;;24.86;46.35;101374.56;5058715;28;20488;-71
2021/09/12 01:46:56;;;;;;;8.77;4.63;;;;;;;24.84;46.78;101373.84;5040626;28;20123;-71
2021/09/12 01:49:23;;;;;;;6.60;4.72;;;;;;;24.84;46.79;101373.84;5065472;28;20128;-71
2021/09/12 01:51:51;;;;;;;7.00;4.38;;;;;;;24.82;46.50;101373.16;5055942;28;20053;-71
2021/09/12 01:54:19;;;;;;;6.43;4.28;;;;;;;24.81;46.96;101367.78;5063602;28;20545;-73
2021/09/12 01:56:46;;;;;;;6.30;4.43;;;;;;;24.80;47.05;101368.84;5063744;28;20123;-71
2021/09/12 01:59:12;;;;;;;6.97;4.80;;;;;;;24.78;46.81;101369.03;5072390;28;20247;-71
2021/09/12 02:01:39;;;;;;;5.93;4.05;;;;;;;24.77;46.65;101372.88;5063864;28;20128;-71
2021/09/12 02:04:06;;;;;;;7.07;5.15;;;;;;;24.77;47.25;101372.00;5058982;28;20057;-71
2021/09/12 02:06:32;;;;;;;7.68;5.25;;;;;;;24.76;47.27;101381.38;5064538;28;20044;-71
2021/09/12 02:08:59;;;;;;;6.50;4.50;;;;;;;24.75;47.01;101369.41;5062342;28;20057;-72
2021/09/12 02:11:25;;;;;;;7.35;4.78;;;;;;;24.74;47.33;101375.13;5059877;28;20147;-71
2021/09/12 02:13:53;;;;;;;6.38;4.57;;;;;;;24.72;46.78;101372.53;5046584;28;20048;-71
2021/09/12 02:16:21;;;;;;;6.22;4.32;;;;;;;24.72;47.02;101372.53;5058086;28;20131;-71
2021/09/12 02:18:48;;;;;;;6.50;4.82;;;;;;;24.71;46.75;101367.19;5063622;28;20037;-72
2021/09/12 02:21:14;;;;;;;7.20;5.07;;;;;;;24.69;46.85;101355.38;5069003;28;20059;-71
2021/09/12 02:23:41;;;;;;;6.97;4.50;;;;;;;24.68;47.04;101362.84;5067300;28;20048;-71
2021/09/12 02:26:08;;;;;;;6.90;4.60;;;;;;;24.67;47.08;101365.78;5068351;28;20131;-71
2021/09/12 02:28:35;;;;;;;7.72;4.55;;;;;;;24.65;47.07;101360.41;5071911;28;20135;-71
2021/09/12 02:31:01;;;;;;;6.00;4.03;;;;;;;24.62;47.09;101361.63;5075279;28;20136;-71
2021/09/12 02:33:28;;;;;;;6.18;4.43;;;;;;;24.61;47.13;101362.72;5064559;28;20907;-71
2021/09/12 02:35:55;;;;;;;9.65;5.03;;;;;;;24.62;47.00;101366.34;5062624;28;20056;-71
2021/09/12 02:38:21;;;;;;;7.72;5.43;;;;;;;24.60;46.92;101360.13;5065777;28;20119;-71
2021/09/12 02:40:48;;;;;;;8.43;5.00;;;;;;;24.59;46.80;101370.34;5067301;28;20067;-71
2021/09/12 02:43:14;;;;;;;7.50;5.32;;;;;;;24.58;47.00;101362.19;5064278;28;20128;-71
2021/09/12 02:45:41;;;;;;;6.55;5.28;;;;;;;24.57;46.60;101366.88;5060352;28;20737;-71
2021/09/12 02:48:07;;;;;;;7.70;5.47;;;;;;;24.57;47.09;101366.03;5063871;28;20541;-71
2021/09/12 02:50:34;;;;;;;8.70;5.53;;;;;;;24.55;46.87;101368.97;5058839;28;20147;-71
2021/09/12 02:53:00;;;;;;;8.55;5.63;;;;;;;24.54;47.36;101361.69;5052812;28;20115;-71
2021/09/12 02:55:27;;;;;;;7.85;5.50;;;;;;;24.53;47.26;101367.44;5068756;28;20144;-71
2021/09/12 02:57:53;;;;;;;7.45;5.20;;;;;;;24.52;47.09;101366.56;5065876;28;20048;-71
2021/09/12 03:00:20;;;;;;;8.07;5.68;;;;;;;24.51;46.95;101373.16;5076593;28;20119;-71
2021/09/12 03:02:46;;;;;;;7.65;5.28;;;;;;;24.51;47.04;101383.41;5067286;28;20123;-71
2021/09/12 03:05:14;;;;;;;8.25;5.55;;;;;;;24.50;47.20;101370.56;5062188;28;20056;-71
2021/09/12 03:07:40;;;;;;;9.25;5.75;;;;;;;24.49;47.38;101377.16;5063578;28;20727;-71
2021/09/12 03:10:07;;;;;;;8.43;5.57;;;;;;;24.49;47.16;101377.16;5067665;28;20152;-71
2021/09/12 03:12:34;;;;;;;8.48;5.63;;;;;;;24.48;47.01;101376.28;5044770;28;20059;-71
2021/09/12 03:15:00;;;;;;;8.45;5.97;;;;;;;24.47;46.95;101374.56;5066939;28;20071;-71
2021/09/12 03:17:27;;;;;;;7.90;5.32;;;;;;;24.46;46.97;101378.38;5064536;28;20136;-72
2021/09/12 03:19:53;;;;;;;7.80;5.28;;;;;;;24.46;47.00;101380.31;5069304;28;20051;-71
2021/09/12 03:22:20;;;;;;;7.97;5.30;;;;;;;24.44;46.88;101371.28;5051824;28;20128;-71
2021/09/12 03:24:46;;;;;;;9.15;5.72;;;;;;;24.43;47.02;101383.44;5044690;28;20064;-71
2021/09/12 03:27:13;;;;;;;8.30;5.55;;;;;;;24.43;47.12;101383.44;5047950;28;20420;-71
2021/09/12 03:29:39;;;;;;;8.00;5.25;;;;;;;24.42;47.18;101378.94;5079027;28;20047;-71
2021/09/12 03:32:06;;;;;;;7.82;5.57;;;;;;;24.40;46.83;101379.09;5060145;28;20072;-71
2021/09/12 03:34:32;;;;;;;8.23;5.25;;;;;;;24.40;47.31;101381.00;5065536;28;20059;-72
2021/09/12 03:36:59;;;;;;;8.48;5.25;;;;;;;24.39;46.88;101376.50;5063667;28;20049;-71
2021/09/12 03:39:25;;;;;;;8.52;5.47;;;;;;;24.38;47.02;101381.19;5053093;28;20041;-71
2021/09/12 03:41:52;;;;;;;8.15;5.40;;;;;;;24.36;47.13;101374.97;5059177;28;20058;-71
2021/09/12 03:44:18;;;;;;;8.65;5.80;;;;;;;24.35;46.82;101373.25;5063034;28;20715;-71
2021/09/12 03:46:45;;;;;;;8.98;5.68;;;;;;;24.33;47.25;101377.22;5060980;28;20058;-71
2021/09/12 03:49:11;;;;;;;8.32;5.47;;;;;;;24.31;47.01;101377.41;5066826;28;20037;-71
2021/09/12 03:51:38;;;;;;;6.65;4.68;;;;;;;24.29;47.00;101375.88;5050222;28;20049;-71
2021/09/12 03:54:04;;;;;;;7.05;4.97;;;;;;;24.26;46.44;101374.31;5066310;28;20135;-71
2021/09/12 03:56:31;;;;;;;6.45;4.13;;;;;;;24.23;46.81;101369.97;5041440;28;20146;-71
2021/09/12 03:58:58;;;;;;;6.53;4.30;;;;;;;24.22;47.03;101370.16;5074483;28;20044;-72
2021/09/12 04:01:24;;;;;;;7.20;4.72;;;;;;;24.21;46.91;101379.53;5066497;28;20062;-71
2021/09/12 04:03:51;;;;;;;7.45;4.63;;;;;;;24.19;47.18;101373.28;5066754;28;20502;-71
2021/09/12 04:06:17;;;;;;;6.50;4.30;;;;;;;24.16;46.98;101371.69;5044617;28;20044;-71
2021/09/12 04:08:44;;;;;;;6.10;4.07;;;;;;;24.16;46.63;101368.06;5064152;28;20043;-71
2021/09/12 04:11:10;;;;;;;6.65;4.40;;;;;;;24.13;46.55;101380.38;5066273;28;20482;-71
2021/09/12 04:13:37;;;;;;;7.00;4.35;;;;;;;24.12;46.47;101372.25;5065571;28;20127;-71
2021/09/12 04:16:04;;;;;;;6.95;4.78;;;;;;;24.09;46.16;101376.25;5066405;28;20080;-71
2021/09/12 04:18:34;;;;;;;7.82;4.88;;;;;;;24.06;46.10;101368.25;5066415;28;20055;-71
2021/09/12 04:21:01;;;;;;;5.72;3.60;;;;;;;24.03;46.83;101371.41;5059258;28;20164;-71
2021/09/12 04:23:27;;;;;;;6.78;4.00;;;;;;;24.00;46.55;101366.19;5066498;28;20059;-71
2021/09/12 04:25:53;;;;;;;7.22;4.00;;;;;;;23.98;46.50;101372.97;5049993;28;20131;-72
2021/09/12 04:28:20;;;;;;;5.38;3.55;;;;;;;23.97;46.65;101368.44;5072890;28;20058;-71
2021/09/12 04:30:46;;;;;;;6.03;3.97;;;;;;;23.94;46.25;101369.69;5058822;28;20044;-71
2021/09/12 04:33:13;;;;;;;6.32;3.60;;;;;;;23.92;46.08;101374.53;5062812;28;20147;-72
2021/09/12 04:35:40;;;;;;;5.68;3.38;;;;;;;23.91;46.37;101372.81;5065991;28;20609;-71
2021/09/12 04:38:06;;;;;;;5.07;3.38;;;;;;;23.89;46.00;101375.75;5066437;28;20713;-71
2021/09/12 04:40:33;;;;;;;5.05;3.47;;;;;;;23.87;46.07;101372.31;5063115;28;20076;-71
2021/09/12 04:42:59;;;;;;;4.82;3.08;;;;;;;23.86;46.08;101380.81;5065534;28;20127;-72
2021/09/12 04:45:26;;;;;;;4.88;2.97;;;;;;;23.84;45.80;101380.97;5062945;28;20049;-71
2021/09/12 04:47:52;;;;;;;4.43;2.55;;;;;;;23.82;45.61;101376.63;5057815;28;20056;-71
2021/09/12 04:50:19;;;;;;;5.00;2.85;;;;;;;23.80;45.73;101378.75;5066911;28;20036;-71
2021/09/12 04:52:47;;;;;;;5.13;2.70;;;;;;;23.78;45.37;101387.22;5059796;28;20124;-71
2021/09/12 04:55:14;;;;;;;5.90;2.78;;;;;;;23.75;45.72;101381.16;5061828;28;20074;-71
2021/09/12 04:57:41;;;;;;;5.38;2.97;;;;;;;23.73;45.86;101391.56;5056119;28;20482;-71
2021/09/12 05:00:08;;;;;;;5.35;3.05;;;;;;;23.71;46.03;101388.13;5074097;28;20131;-71
2021/09/12 05:02:34;;;;;;;6.43;3.20;;;;;;;23.68;46.01;101381.00;5065533;28;20128;-71
2021/09/12 05:05:02;;;;;;;5.68;2.60;;;;;;;23.66;45.70;101391.38;5062693;28;20052;-71
2021/09/12 05:07:28;;;;;;;6.40;3.13;;;;;;;23.65;45.96;101389.66;5064607;28;20049;-71
2021/09/12 05:09:55;;;;;;;5.80;2.65;;;;;;;23.63;46.20;101393.66;5060177;28;20126;-71
2021/09/12 05:12:21;;;;;;;5.18;2.65;;;;;;;23.61;45.79;101402.16;5053116;28;20409;-71
2021/09/12 05:14:47;;;;;;;5.35;2.80;;;;;;;23.61;46.12;101399.38;5056590;28;20051;-71
2021/09/12 05:17:14;;;;;;;5.20;2.90;;;;;;;23.60;45.76;101411.50;5063007;28;20098;-71
2021/09/12 05:19:40;;;;;;;4.30;2.72;;;;;;;23.60;45.90;101413.41;5061924;28;20064;-71
2021/09/12 05:22:07;;;;;;;7.18;2.88;;;;;;;23.57;45.57;101417.38;5060948;28;20051;-71
2021/09/12 05:24:34;;;;;;;4.50;2.83;;;;;;;23.56;45.55;101415.66;5065655;28;20052;-71
2021/09/12 05:27:00;;;;;;;5.00;2.50;;;;;;;23.55;45.44;101413.94;5055297;28;20533;-72
2021/09/12 05:29:26;;;;;;;5.90;2.60;;;;;;;23.54;45.65;101411.34;5067052;28;20040;-71
2021/09/12 05:31:53;;;;;;;4.60;2.90;;;;;;;23.51;45.46;101418.94;5054217;28;20135;-71
2021/09/12 05:34:19;;;;;;;4.70;2.63;;;;;;;23.50;45.72;101419.13;5057435;28;20477;-71
2021/09/12 05:36:46;;;;;;;4.72;2.80;;;;;;;23.49;45.79;101418.25;5056269;28;20132;-71
2021/09/12 05:39:13;;;;;;;4.40;2.50;;;;;;;23.49;45.50;101420.16;5062380;28;20131;-71
2021/09/12 05:41:39;;;;;;;4.32;2.63;;;;;;;23.47;45.93;101422.22;5064955;28;20135;-71
2021/09/12 05:44:06;;;;;;;4.47;2.88;;;;;;;23.46;45.63;101423.25;5054716;28;20059;-71
2021/09/12 05:46:35;;;;;;;4.65;2.47;;;;;;;23.45;45.37;101425.16;5059701;28;20083;-71
2021/09/12 05:49:02;;;;;;;4.68;2.60;;;;;;;23.44;45.29;101431.75;5058927;28;20512;-71
2021/09/12 05:51:29;;;;;;;6.25;2.85;;;;;;;23.42;45.33;101433.81;5063314;28;20078;-71
2021/09/12 05:53:56;;;;;;;5.68;2.42;;;;;;;23.42;45.12;101428.25;5061457;28;20155;-71
2021/09/12 05:56:22;;;;;;;3.78;2.35;;;;;;;23.40;45.53;101435.88;5041833;28;20099;-71
2021/09/12 05:58:49;;;;;;;5.22;2.70;;;;;;;23.39;45.57;101436.06;5061943;28;20132;-71
2021/09/12 06:01:15;;;;;;;5.18;2.45;;;;;;;23.38;45.67;101439.88;5058646;28;21056;-71
2021/09/12 06:03:42;;;;;;;4.85;2.33;;;;;;;23.37;45.89;101435.38;5063947;28;20456;-71
2021/09/12 06:06:09;;;;;;;4.80;2.53;;;;;;;23.38;45.90;101440.75;5058340;28;20401;-71
2021/09/12 06:08:36;;;;;;;5.15;2.42;;;;;;;23.38;45.86;101440.75;5057280;28;20045;-71
2021/09/12 06:11:02;;;;;;;4.82;2.33;;;;;;;23.38;45.45;101445.44;5041701;28;20044;-71
2021/09/12 06:13:29;;;;;;;4.50;2.70;;;;;;;23.39;46.12;101444.38;5059409;28;20070;-70
2021/09/12 06:15:55;;;;;;;4.55;2.40;;;;;;;23.39;46.04;101439.69;5062339;28;20082;-70
2021/09/12 06:18:22;;;;;;;4.07;2.50;;;;;;;23.40;45.79;101440.56;5056975;28;20043;-71
2021/09/12 06:20:48;;;;;;;4.22;3.15;;;;;;;23.39;45.35;101448.00;5062201;28;20103;-71
2021/09/12 06:23:15;;;;;;;4.97;2.78;;;;;;;23.39;45.65;101452.69;5044912;28;20494;-73
2021/09/12 06:25:41;;;;;;;5.18;2.75;;;;;;;23.38;45.20;101451.84;5060382;28;20523;-72
2021/09/12 06:28:08;;;;;;;3.80;2.38;;;;;;;23.38;45.42;101450.97;5047661;28;20048;-74
2021/09/12 06:30:34;;;;;;;5.18;2.63;;;;;;;23.36;44.93;101455.81;5063999;28;20041;-73
2021/09/12 06:33:01;;;;;;;3.88;2.42;;;;;;;23.34;45.54;101455.97;5055384;28;20079;-72
2021/09/12 06:35:27;;;;;;;6.45;3.15;;;;;;;23.30;45.21;101454.59;5064670;28;20099;-72
2021/09/12 06:37:54;;;;;;;5.30;3.05;;;;;;;23.29;45.38;101452.00;5063338;28;20366;-72
2021/09/12 06:40:23;;;;;;;6.25;3.00;;;;;;;23.27;45.36;101452.16;5063784;28;20155;-72
2021/09/12 06:42:50;;;;;;;5.35;3.45;;;;;;;23.27;45.15;101457.69;5062591;28;20561;-75
2021/09/12 06:45:18;;;;;;;6.03;3.22;;;;;;;23.26;45.52;101455.94;5065822;23;20053;-79
2021/09/12 06:47:44;;;;;;;4.80;3.00;;;;;;;23.26;45.25;101460.63;5031344;28;20481;-80
2021/09/12 06:50:11;;;;;;;4.72;3.15;;;;;;;23.26;45.42;101457.84;5034229;28;20144;-79
2021/09/12 06:52:39;;;;;;;5.38;3.08;;;;;;;23.28;45.53;101458.56;5020941;28;20179;-79
2021/09/12 06:55:53;;;;;;;5.72;3.17;;;;;;;23.25;45.83;101450.56;5017589;28;20424;-80
2021/09/12 06:58:43;;;;;;;5.32;2.78;;;;;;;23.28;45.79;101451.13;4999490;28;20050;-78
2021/09/12 07:01:32;;;;;;;5.05;2.95;;;;;;;23.30;45.56;101459.28;4991406;28;20041;-79
2021/09/12 07:04:21;;;;;;;5.30;3.05;;;;;;;23.29;45.85;101455.63;4962040;28;20053;-79
2021/09/12 07:07:26;;;;;;;6.30;3.30;;;;;;;23.31;45.88;101461.84;5003294;28;20066;-78
2021/09/12 07:10:18;;;;;;;4.88;2.88;;;;;;;23.29;45.79;101450.09;4928891;28;20588;-80
2021/09/12 07:13:33;;;;;;;5.97;2.85;;;;;;;23.29;45.62;101455.63;4967849;28;20061;-79
2021/09/12 07:16:39;;;;;;;;;;;;;;;23.06;46.80;101460.09;4951717;28;20069;-80
2021/09/12 07:20:23;;;;;;;5.55;2.83;;;;;;;23.32;45.91;101463.56;4940282;28;19931;-77
2021/09/12 07:24:13;;;;;;;5.00;2.42;;;;;;;23.34;46.13;101466.19;4956888;28;20060;-80
2021/09/12 07:27:06;;;;;;;6.35;3.33;;;;;;;23.35;45.69;101466.03;4973531;28;20046;-78
2021/09/12 07:30:39;;;;;;;5.10;2.90;;;;;;;23.40;45.93;101469.13;4933702;29;20113;-79
2021/09/12 07:33:28;;;;;;;6.82;3.42;;;;;;;23.39;46.38;101464.63;4947448;28;20057;-80
2021/09/12 07:35:55;;;;;;;6.25;3.55;;;;;;;23.43;45.69;101466.03;4969295;28;20085;-79
2021/09/12 07:38:21;;;;;;;5.65;3.03;;;;;;;23.47;46.08;101463.81;4972565;28;20059;-80
2021/09/12 07:40:47;;;;;;;6.07;3.15;;;;;;;23.50;46.31;101464.34;4965907;28;20042;-81
2021/09/12 07:43:14;;;;;;;6.00;2.95;;;;;;;23.52;45.83;101464.16;4985011;28;20065;-79
2021/09/12 07:45:40;;;;;;;5.22;2.80;;;;;;;23.56;45.39;101456.34;4997603;28;20212;-79
2021/09/12 07:48:20;;;;;;;4.90;2.60;;;;;;;23.58;45.20;101460.69;4971534;28;20133;-79
2021/09/12 07:50:49;;;;;;;5.13;2.80;;;;;;;23.60;45.07;101460.53;4959367;28;20047;-80
2021/09/12 07:53:19;;;;;;;4.93;2.75;;;;;;;23.61;44.96;101463.13;4947592;28;20129;-81
2021/09/12 07:55:50;;;;;;;6.28;3.08;;;;;;;23.65;44.43;101470.06;5029814;28;20124;-81
2021/09/12 07:58:18;;;;;;;5.45;2.85;;;;;;;23.62;44.46;101472.31;4987317;28;20048;-82
2021/09/12 08:00:45;;;;;;;4.50;2.40;;;;;;;23.62;44.60;101464.00;5032264;28;20052;-80
2021/09/12 08:03:16;;;;;;;5.57;2.50;;;;;;;23.62;44.90;101464.88;5008306;28;20049;-79
2021/09/12 08:05:58;;;;;;;5.28;2.80;;;;;;;23.62;44.57;101470.41;5023987;28;20107;-78
2021/09/12 08:08:26;;;;;;;5.20;2.72;;;;;;;23.65;44.35;101477.50;5026987;28;20548;-81
2021/09/12 08:10:59;;;;;;;3.63;2.22;;;;;;;23.68;43.80;101479.94;5016437;28;20040;-78
2021/09/12 08:13:28;;;;;;;5.38;2.20;;;;;;;23.65;44.04;101471.97;4998228;28;20055;-80
2021/09/12 08:16:03;;;;;;;6.22;2.60;;;;;;;23.67;44.22;101480.97;5012325;28;20080;-79
2021/09/12 08:18:41;;;;;;;3.90;2.15;;;;;;;23.64;43.93;101473.88;4994456;28;20064;-80
2021/09/12 08:21:07;;;;;;;5.53;2.42;;;;;;;23.65;44.11;101478.38;4995909;28;20096;-79
2021/09/12 08:23:34;;;;;;;5.78;2.70;;;;;;;23.63;43.95;101474.94;5010887;28;20089;-79
2021/09/12 08:26:00;;;;;;;5.40;2.17;;;;;;;23.64;43.72;101481.31;4996269;28;20077;-80
2021/09/12 08:28:27;;;;;;;4.05;2.33;;;;;;;23.64;43.91;101481.31;5018504;28;20069;-79
2021/09/12 08:30:54;;;;;;;4.15;2.40;;;;;;;23.64;44.22;101482.19;5027896;28;20073;-79
2021/09/12 08:33:20;;;;;;;5.45;2.42;;;;;;;23.67;44.21;101480.97;5011781;28;20050;-80
2021/09/12 08:35:47;;;;;;;3.63;2.17;;;;;;;23.67;44.39;101490.16;4992315;28;20114;-79
2021/09/12 08:38:14;;;;;;;4.18;2.22;;;;;;;23.72;44.20;101486.91;4992012;28;20480;-81
2021/09/12 08:40:40;;;;;;;5.28;2.35;;;;;;;23.75;44.65;101492.94;5008659;28;20050;-80
2021/09/12 08:43:07;;;;;;;4.65;1.90;;;;;;;23.79;44.22;101485.16;5010875;28;20564;-78
2021/09/12 08:45:35;;;;;;;3.55;2.00;;;;;;;23.83;44.05;101486.53;5012175;28;20050;-79
2021/09/12 08:48:02;;;;;;;5.35;2.20;;;;;;;23.87;44.05;101487.94;4995456;28;20112;-80
2021/09/12 08:50:28;;;;;;;3.25;2.00;;;;;;;23.89;43.29;101496.91;4994864;28;20648;-80
2021/09/12 08:52:55;;;;;;;4.40;2.30;;;;;;;23.92;43.62;101488.25;5010940;28;20128;-80
2021/09/12 08:55:22;;;;;;;3.75;2.20;;;;;;;23.94;43.41;101490.88;4994605;28;20156;-79
2021/09/12 08:57:53;;;;;;;4.18;2.38;;;;;;;23.96;43.54;101495.22;5013940;28;20076;-80
2021/09/12 09:00:25;;;;;;;3.22;2.10;;;;;;;23.98;43.32;101490.34;5030809;28;20126;-81
2021/09/12 09:03:00;;;;;;;4.15;2.00;;;;;;;24.02;43.05;101490.88;5026376;28;20080;-80
2021/09/12 09:05:47;;;;;;;4.18;2.25;;;;;;;24.03;43.53;101496.25;5036726;28;20471;-80
2021/09/12 09:08:17;;;;;;;4.28;2.58;;;;;;;24.10;43.38;101485.31;5017689;28;20129;-80
2021/09/12 09:10:49;;;;;;;3.90;2.28;;;;;;;24.15;43.32;101492.06;5033181;28;20120;-79
2021/09/12 09:13:54;;;;;;;4.45;2.13;;;;;;;24.10;43.49;101496.41;5001301;28;20048;-81
2021/09/12 09:16:30;;;;;;;5.45;2.13;;;;;;;24.22;43.46;101493.13;5016181;28;20050;-81
2021/09/12 09:19:12;;;;;;;5.22;2.05;;;;;;;24.26;43.71;101488.09;5031355;28;20065;-79
2021/09/12 09:22:31;;;;;;;3.55;1.77;;;;;;;24.29;42.53;101484.09;5012717;28;20080;-80
2021/09/12 09:25:10;;;;;;;3.33;2.10;;;;;;;24.40;42.74;101487.34;5027223;28;20049;-79
2021/09/12 09:28:02;;;;;;;4.05;2.03;;;;;;;24.46;42.67;101494.97;5025560;28;20054;-79
2021/09/12 09:30:34;;;;;;;3.20;1.67;;;;;;;24.51;42.27;101483.34;5014090;28;20100;-79
2021/09/12 09:33:22;;;;;;;3.78;1.83;;;;;;;24.54;42.33;101486.63;5010592;28;20355;-80
2021/09/12 09:35:59;;;;;;;3.53;1.63;;;;;;;24.63;41.33;101488.31;5003596;28;20050;-80
2021/09/12 09:38:28;;;;;;;3.17;1.65;;;;;;;24.65;41.54;101488.16;5010242;28;20100;-79
2021/09/12 09:41:01;;;;;;;3.53;1.80;;;;;;;24.72;41.28;101480.84;5010722;28;20760;-80
2021/09/12 09:43:41;;;;;;;3.55;1.50;;;;;;;24.73;41.62;101482.56;5010136;28;20097;-80
2021/09/12 09:46:26;;;;;;;4.65;1.85;;;;;;;24.77;41.17;101481.19;5023836;28;20053;-79
2021/09/12 09:48:53;;;;;;;2.50;1.50;;;;;;;24.81;41.64;101481.66;5029540;28;20073;-79
2021/09/12 09:51:21;;;;;;;2.72;1.55;;;;;;;24.88;41.53;101474.34;5015241;28;20105;-78
2021/09/12 09:53:48;;;;;;;2.67;1.63;;;;;;;24.90;41.24;101478.69;4992564;28;20682;-79
2021/09/12 09:56:15;;;;;;;3.33;1.90;;;;;;;24.97;41.08;101470.50;5023350;28;20107;-79
2021/09/12 09:58:43;;;;;;;2.95;1.85;;;;;;;25.01;40.67;101472.78;5027575;28;20077;-79
2021/09/12 10:01:10;;;;;;;3.40;1.83;;;;;;;25.07;40.35;101470.28;5029452;28;20564;-80
2021/09/12 10:03:37;;;;;;;3.42;1.67;;;;;;;25.10;40.40;101462.47;5025290;28;20052;-80
2021/09/12 10:06:06;;;;;;;3.00;1.60;;;;;;;25.15;40.65;101465.56;5020112;28;20049;-79
2021/09/12 10:08:36;;;;;;;3.50;1.80;;;;;;;25.25;40.63;101457.00;4988416;28;20112;-79
2021/09/12 10:11:07;;;;;;;4.05;1.60;;;;;;;25.31;40.77;101453.47;4981923;28;20060;-80
2021/09/12 10:13:37;;;;;;;2.80;1.67;;;;;;;25.37;40.42;101453.59;4979010;28;20042;-79
2021/09/12 10:16:07;;;;;;;4.65;1.80;;;;;;;25.47;40.02;101453.34;5024886;28;20456;-80
2021/09/12 10:18:35;;;;;;;3.05;1.70;;;;;;;25.54;40.09;101446.00;5033901;28;20053;-80
2021/09/12 10:21:26;;;;;;;4.03;1.90;;;;;;;25.62;39.45;101462.66;5026095;28;20050;-79
2021/09/12 10:24:02;;;;;;;3.50;1.60;;;;;;;25.73;39.16;101458.56;5014805;28;20332;-80
2021/09/12 10:26:34;;;;;;;4.30;1.58;;;;;;;25.80;39.61;101453.13;5027603;28;20143;-80
2021/09/12 10:29:02;;;;;;;3.17;1.63;;;;;;;25.87;39.70;101452.19;5032291;28;20061;-80
2021/09/12 10:31:34;;;;;;;3.97;1.60;;;;;;;25.99;38.52;101455.41;5034821;28;20041;-80
2021/09/12 10:34:07;;;;;;;4.38;1.67;;;;;;;26.03;38.36;101445.59;5051632;28;20048;-79
2021/09/12 10:36:35;;;;;;;2.72;1.50;;;;;;;26.09;38.77;101456.88;5025614;28;20521;-80
2021/09/12 10:39:23;;;;;;;2.88;1.50;;;;;;;26.18;37.88;101449.28;4992928;28;20050;-81
2021/09/12 10:42:22;;;;;;;3.53;1.80;;;;;;;26.19;37.90;101447.38;5020867;28;20045;-80
2021/09/12 10:45:20;;;;;;;2.35;1.38;;;;;;;26.26;37.93;101440.03;4964912;28;20076;-80
2021/09/12 10:47:48;;;;;;;2.53;1.52;;;;;;;26.36;38.65;101440.59;4983556;28;20049;-79
2021/09/12 10:50:44;;;;;;;2.15;1.35;;;;;;;26.40;37.76;101437.25;5019262;28;20145;-80
2021/09/12 10:53:11;;;;;;;3.25;1.55;;;;;;;26.51;38.13;101444.25;4985936;28;20053;-79
2021/09/12 10:56:26;;;;;;;1.80;1.42;;;;;;;26.59;36.92;101433.03;5019566;28;20076;-80
2021/09/12 10:59:13;;;;;;;3.28;1.58;;;;;;;26.64;37.12;101436.06;4975345;28;20097;-81
2021/09/12 11:01:49;;;;;;;2.38;1.40;;;;;;;26.74;36.15;101442.22;5011729;28;20389;-80
2021/09/12 11:04:25;;;;;;;2.60;1.60;;;;;;;26.78;36.87;101440.75;4995765;28;20088;-80
2021/09/12 11:07:01;;;;;;;2.95;1.67;;;;;;;26.83;35.67;101441.06;5045247;28;20503;-81
2021/09/12 11:09:53;;;;;;;2.22;1.48;;;;;;;26.81;35.55;101440.38;5018471;28;20041;-80
2021/09/12 11:12:29;;;;;;;2.60;1.48;;;;;;;26.86;35.91;101442.56;5019505;28;20316;-79
2021/09/12 11:15:00;;;;;;;3.85;1.52;;;;;;;26.83;35.67;101435.50;5038726;28;20040;-80
2021/09/12 11:17:52;;;;;;;4.40;1.60;;;;;;;26.86;34.90;101426.72;5003623;28;20412;-78
2021/09/12 11:20:18;;;;;;;2.35;1.33;;;;;;;26.82;35.69;101433.75;5018603;28;20235;-79
2021/09/12 11:22:51;;;;;;;1.95;1.48;;;;;;;26.86;34.93;101440.66;5031345;28;20077;-79
2021/09/12 11:25:21;;;;;;;2.72;1.48;;;;;;;26.86;34.47;101442.56;5037837;28;20060;-79
2021/09/12 11:28:06;;;;;;;3.10;1.48;;;;;;;26.85;34.79;101432.47;5025124;28;20716;-80
2021/09/12 11:30:40;;;;;;;2.95;1.52;;;;;;;26.86;34.80;101432.28;5037255;28;20071;-80
2021/09/12 11:33:50;;;;;;;2.75;1.52;;;;;;;26.88;35.34;101430.19;5012648;28;20060;-81
2021/09/12 11:36:25;;;;;;;2.60;1.75;;;;;;;26.93;35.27;101435.22;4977145;28;20045;-79
2021/09/12 11:38:58;;;;;;;3.53;1.58;;;;;;;26.98;35.25;101426.25;4891037;28;20093;-80
2021/09/12 11:41:30;;;;;;;2.95;1.50;;;;;;;26.98;35.53;101429.03;4974091;28;20050;-81
2021/09/12 11:43:59;;;;;;;2.33;1.58;;;;;;;27.04;35.09;101426.34;4948323;28;20704;-80